Time;durP1;ratioP1;P1;durP2;ratioP2;P2;SDS_P1;SDS_P2;PMS_P1;PMS_P2;Temp;Humidity;BMP_temperature;BMP_pressure;BME280_temperature;BME280_humidity;BME280_pressure;Samples;Min_cycle;Max_cycle;Signal;HPM_P1;HPM_P2
2023/09/18 00:01:39;;;;;;;7.32;5.95;;;16.40;99.90;;;;;;4935788;29;20608;-84
2023/09/18 00:04:05;;;;;;;6.75;6.00;;;16.40;99.90;;;;;;4936539;29;20094;-84
2023/09/18 00:06:32;;;;;;;9.38;6.45;;;16.40;99.90;;;;;;4936201;29;20039;-84
2023/09/18 00:08:57;;;;;;;10.32;6.60;;;16.40;99.90;;;;;;4936095;29;20044;-84
2023/09/18 00:11:23;;;;;;;9.88;5.82;;;16.40;99.90;;;;;;4935646;29;20070;-84
2023/09/18 00:13:48;;;;;;;8.07;6.53;;;16.40;99.90;;;;;;4934513;29;20062;-83
2023/09/18 00:16:14;;;;;;;9.73;5.72;;;16.30;99.90;;;;;;4936313;29;20502;-84
2023/09/18 00:18:40;;;;;;;7.38;5.38;;;16.30;99.90;;;;;;4936512;29;20125;-84
2023/09/18 00:21:06;;;;;;;7.50;5.85;;;16.30;99.90;;;;;;4935210;29;20204;-84
2023/09/18 00:23:34;;;;;;;8.90;5.72;;;16.20;99.90;;;;;;4935066;29;20838;-84
2023/09/18 00:26:00;;;;;;;6.15;5.13;;;16.20;99.90;;;;;;4934829;29;20065;-84
2023/09/18 00:28:25;;;;;;;6.45;5.68;;;16.20;99.90;;;;;;4935478;29;20672;-84
2023/09/18 00:30:51;;;;;;;7.88;5.63;;;16.20;99.90;;;;;;4935028;29;20506;-85
2023/09/18 00:33:19;;;;;;;9.07;5.53;;;16.10;99.90;;;;;;4936215;29;21455;-84
2023/09/18 00:35:51;;;;;;;6.45;5.20;;;16.10;99.90;;;;;;4935200;29;20035;-83
2023/09/18 00:38:18;;;;;;;11.88;5.63;;;16.10;99.90;;;;;;4936157;29;20027;-84
2023/09/18 00:40:44;;;;;;;10.95;6.00;;;16.00;99.90;;;;;;4935204;29;20036;-84
2023/09/18 00:43:10;;;;;;;7.85;5.35;;;16.00;99.90;;;;;;4936245;29;21556;-84
2023/09/18 00:45:41;;;;;;;7.05;6.07;;;16.00;99.90;;;;;;4935853;29;20027;-84
2023/09/18 00:48:07;;;;;;;9.13;6.55;;;16.00;99.90;;;;;;4935441;29;20177;-84
2023/09/18 00:50:33;;;;;;;8.80;6.35;;;15.90;99.90;;;;;;4935099;29;20031;-84
2023/09/18 00:53:01;;;;;;;8.30;6.15;;;15.90;99.90;;;;;;4935739;29;20595;-84
2023/09/18 00:55:28;;;;;;;9.50;5.60;;;15.90;99.90;;;;;;4935468;29;20027;-84
2023/09/18 00:57:55;;;;;;;7.80;6.10;;;15.80;99.90;;;;;;4936106;29;20037;-84
2023/09/18 01:00:22;;;;;;;8.45;5.75;;;15.80;99.90;;;;;;4935118;29;20514;-84
2023/09/18 01:02:48;;;;;;;7.45;5.88;;;15.80;99.90;;;;;;4934634;29;20440;-83
2023/09/18 01:05:16;;;;;;;9.10;5.65;;;15.80;99.90;;;;;;4934907;29;20066;-84
2023/09/18 01:07:42;;;;;;;9.60;5.30;;;15.80;99.90;;;;;;4935813;29;20032;-84
2023/09/18 01:10:15;;;;;;;8.00;5.10;;;15.80;99.90;;;;;;4917022;29;20046;-84
2023/09/18 01:12:46;;;;;;;8.32;6.22;;;15.80;99.90;;;;;;4934741;29;20074;-85
2023/09/18 01:15:17;;;;;;;7.75;5.57;;;15.70;99.90;;;;;;4934933;29;20043;-84
2023/09/18 01:17:43;;;;;;;6.75;5.40;;;15.80;99.90;;;;;;4935826;29;20035;-84
2023/09/18 01:20:10;;;;;;;7.90;4.63;;;15.70;99.90;;;;;;4934190;29;20491;-84
2023/09/18 01:22:36;;;;;;;7.00;4.57;;;15.80;99.90;;;;;;4935484;29;20031;-83
2023/09/18 01:25:02;;;;;;;7.40;5.10;;;15.70;99.90;;;;;;4934827;29;20110;-84
2023/09/18 01:27:28;;;;;;;7.88;4.88;;;15.60;99.90;;;;;;4935405;29;20058;-84
2023/09/18 01:29:53;;;;;;;6.45;4.90;;;15.60;99.90;;;;;;4935459;29;20179;-84
2023/09/18 01:32:21;;;;;;;8.38;4.95;;;15.60;99.90;;;;;;4943947;29;20114;-84
2023/09/18 01:34:48;;;;;;;9.88;4.90;;;15.60;99.90;;;;;;4942871;29;20065;-83
2023/09/18 01:37:16;;;;;;;5.35;4.40;;;15.60;99.90;;;;;;4942506;29;20363;-84
2023/09/18 01:39:44;;;;;;;5.68;4.68;;;15.60;99.90;;;;;;4934408;29;20047;-84
2023/09/18 01:42:10;;;;;;;5.00;4.50;;;15.50;99.90;;;;;;4935940;29;20033;-84
2023/09/18 01:44:38;;;;;;;6.22;4.68;;;15.50;99.90;;;;;;4934349;29;20507;-83
2023/09/18 01:47:05;;;;;;;6.65;5.07;;;15.50;99.90;;;;;;4935054;29;20035;-83
2023/09/18 01:49:39;;;;;;;7.05;4.85;;;15.50;99.90;;;;;;4934518;29;20039;-84
2023/09/18 01:52:06;;;;;;;7.10;4.68;;;15.40;99.90;;;;;;4934872;29;20039;-83
2023/09/18 01:54:32;;;;;;;7.63;4.97;;;15.50;99.90;;;;;;4934434;29;20122;-84
2023/09/18 01:56:58;;;;;;;5.57;4.68;;;15.40;99.90;;;;;;4932974;29;20032;-84
2023/09/18 01:59:24;;;;;;;7.60;4.88;;;15.40;99.90;;;;;;4934700;29;20514;-84
2023/09/18 02:01:51;;;;;;;8.23;5.10;;;15.40;99.90;;;;;;4935148;29;20027;-83
2023/09/18 02:04:17;;;;;;;5.53;4.45;;;15.50;99.90;;;;;;4934701;29;20035;-84
2023/09/18 02:06:43;;;;;;;6.97;5.05;;;15.40;99.90;;;;;;4934331;29;20099;-84
2023/09/18 02:09:09;;;;;;;5.97;4.63;;;15.40;99.90;;;;;;4935089;29;20055;-83
2023/09/18 02:11:39;;;;;;;7.18;4.82;;;15.40;99.90;;;;;;4934118;29;20031;-84
2023/09/18 02:14:05;;;;;;;6.68;4.80;;;15.40;99.90;;;;;;4934501;29;20052;-84
2023/09/18 02:16:33;;;;;;;7.00;4.47;;;15.40;99.90;;;;;;4935032;29;20031;-84
2023/09/18 02:18:59;;;;;;;5.63;4.40;;;15.50;99.90;;;;;;4935409;29;20422;-84
2023/09/18 02:21:25;;;;;;;10.50;4.90;;;15.40;99.90;;;;;;4932122;29;20054;-83
2023/09/18 02:23:51;;;;;;;8.70;4.32;;;15.40;99.90;;;;;;4936627;28;20043;-84
2023/09/18 02:26:21;;;;;;;7.90;4.40;;;15.30;99.90;;;;;;4938116;29;20035;-83
2023/09/18 02:28:46;;;;;;;8.63;4.50;;;15.30;99.90;;;;;;4939604;29;20027;-84
2023/09/18 02:31:12;;;;;;;5.47;4.25;;;15.30;99.90;;;;;;4940847;29;20039;-84
2023/09/18 02:33:38;;;;;;;7.43;4.22;;;15.20;99.90;;;;;;4943287;29;20044;-84
2023/09/18 02:36:04;;;;;;;6.57;5.13;;;15.20;99.90;;;;;;4959573;28;20035;-82
2023/09/18 02:38:30;;;;;;;6.20;4.45;;;15.20;99.90;;;;;;4965275;28;20130;-82
2023/09/18 02:40:56;;;;;;;10.07;4.30;;;15.20;99.90;;;;;;4952710;28;20050;-84
2023/09/18 02:43:22;;;;;;;7.00;4.53;;;15.20;99.90;;;;;;4938360;29;20590;-85
2023/09/18 02:45:48;;;;;;;7.97;4.18;;;15.20;99.90;;;;;;4938085;29;20032;-84
2023/09/18 02:48:14;;;;;;;8.70;4.03;;;15.20;99.90;;;;;;4937182;29;20035;-83
2023/09/18 02:50:39;;;;;;;4.95;4.22;;;15.20;99.90;;;;;;4935324;29;20066;-83
2023/09/18 02:53:08;;;;;;;7.03;4.47;;;15.20;99.90;;;;;;4938544;29;20039;-84
2023/09/18 02:55:34;;;;;;;7.47;4.45;;;15.20;99.90;;;;;;4937828;29;20031;-84
2023/09/18 02:57:59;;;;;;;7.68;4.05;;;15.10;99.90;;;;;;4937892;29;20050;-83
2023/09/18 03:00:25;;;;;;;6.25;4.28;;;15.10;99.90;;;;;;4937274;29;20107;-83
2023/09/18 03:02:51;;;;;;;6.93;4.53;;;15.10;99.90;;;;;;4936841;29;20034;-84
2023/09/18 03:05:16;;;;;;;6.28;4.50;;;15.10;99.90;;;;;;4938186;29;20067;-85
2023/09/18 03:07:42;;;;;;;7.53;4.45;;;15.10;99.90;;;;;;4919317;29;20083;-83
2023/09/18 03:10:09;;;;;;;7.47;4.55;;;15.00;99.90;;;;;;4936622;29;20035;-83
2023/09/18 03:12:34;;;;;;;5.30;3.97;;;15.00;99.90;;;;;;4937571;28;20121;-84
2023/09/18 03:15:00;;;;;;;6.68;4.15;;;15.00;99.90;;;;;;4938716;29;20114;-84
2023/09/18 03:17:26;;;;;;;8.73;4.75;;;15.00;99.90;;;;;;4936846;29;20670;-84
2023/09/18 03:19:51;;;;;;;8.63;4.28;;;14.90;99.90;;;;;;4933811;29;20031;-83
2023/09/18 03:22:17;;;;;;;7.43;4.57;;;14.90;99.90;;;;;;4935406;29;20390;-84
2023/09/18 03:24:43;;;;;;;7.22;4.57;;;14.90;99.90;;;;;;4937329;29;20035;-84
2023/09/18 03:27:08;;;;;;;7.30;4.47;;;14.90;99.90;;;;;;4934170;29;20043;-84
2023/09/18 03:29:34;;;;;;;8.68;4.63;;;14.90;99.90;;;;;;4937222;29;20420;-84
2023/09/18 03:31:59;;;;;;;7.90;4.55;;;14.80;99.90;;;;;;4937108;28;20031;-83
2023/09/18 03:34:28;;;;;;;7.68;4.32;;;14.80;99.90;;;;;;4938292;28;20030;-82
2023/09/18 03:36:54;;;;;;;8.82;4.35;;;14.80;99.90;;;;;;4938424;28;20035;-84
2023/09/18 03:39:20;;;;;;;5.90;4.63;;;14.70;99.90;;;;;;4937588;28;20529;-84
2023/09/18 03:41:45;;;;;;;6.00;4.53;;;14.80;99.90;;;;;;4934373;29;20229;-84
2023/09/18 03:44:11;;;;;;;5.95;4.65;;;14.80;99.90;;;;;;4936493;29;21526;-84
2023/09/18 03:46:37;;;;;;;11.13;5.43;;;14.70;99.90;;;;;;4936364;29;20050;-84
2023/09/18 03:49:02;;;;;;;9.10;4.55;;;14.80;99.90;;;;;;4936928;29;20028;-84
2023/09/18 03:51:29;;;;;;;12.25;4.88;;;14.70;99.90;;;;;;4936294;29;20039;-85
2023/09/18 03:53:55;;;;;;;6.90;5.10;;;14.70;99.90;;;;;;4936999;29;20046;-84
2023/09/18 03:56:21;;;;;;;8.43;5.65;;;14.70;99.90;;;;;;4937197;29;20091;-83
2023/09/18 03:58:49;;;;;;;7.68;5.60;;;14.70;99.90;;;;;;4938502;29;20160;-83
2023/09/18 04:01:15;;;;;;;9.43;5.28;;;14.70;99.90;;;;;;4937984;29;20046;-84
2023/09/18 04:03:41;;;;;;;10.73;6.07;;;14.70;99.90;;;;;;4938169;29;20039;-84
2023/09/18 04:06:10;;;;;;;10.25;5.45;;;14.70;99.90;;;;;;4937720;29;20058;-85
2023/09/18 04:08:36;;;;;;;11.25;5.93;;;14.70;99.90;;;;;;4937801;29;20051;-84
2023/09/18 04:11:04;;;;;;;7.30;5.45;;;14.70;99.90;;;;;;4935312;29;20035;-84
2023/09/18 04:13:29;;;;;;;6.82;4.90;;;14.70;99.90;;;;;;4937599;29;20035;-84
2023/09/18 04:15:56;;;;;;;7.72;4.90;;;14.60;99.90;;;;;;4936702;29;20035;-84
2023/09/18 04:18:22;;;;;;;12.75;4.63;;;14.60;99.90;;;;;;4937726;29;20043;-84
2023/09/18 04:20:50;;;;;;;5.57;3.97;;;14.60;99.90;;;;;;4936972;29;20039;-84
2023/09/18 04:23:24;;;;;;;10.35;4.45;;;14.50;99.90;;;;;;4935111;29;20043;-84
2023/09/18 04:25:51;;;;;;;7.40;4.13;;;14.50;99.90;;;;;;4937332;29;20133;-84
2023/09/18 04:28:18;;;;;;;5.90;3.83;;;14.40;99.90;;;;;;4936566;29;20043;-84
2023/09/18 04:30:44;;;;;;;9.23;4.30;;;14.40;99.90;;;;;;4934715;29;20594;-84
2023/09/18 04:33:11;;;;;;;7.03;4.32;;;14.30;99.90;;;;;;4937211;29;20035;-84
2023/09/18 04:35:39;;;;;;;5.82;4.05;;;14.30;99.90;;;;;;4936560;29;20549;-84
2023/09/18 04:38:06;;;;;;;7.75;4.28;;;14.30;99.90;;;;;;4935910;29;20051;-84
2023/09/18 04:40:32;;;;;;;7.38;4.40;;;14.30;99.90;;;;;;4935774;29;20063;-84
2023/09/18 04:42:58;;;;;;;6.57;4.82;;;14.30;99.90;;;;;;4936068;29;20493;-84
2023/09/18 04:45:25;;;;;;;9.68;4.70;;;14.20;99.90;;;;;;4936429;29;20058;-84
2023/09/18 04:47:51;;;;;;;6.47;4.43;;;14.30;99.90;;;;;;4936477;28;20036;-84
2023/09/18 04:50:16;;;;;;;5.13;4.13;;;14.20;99.90;;;;;;4934428;29;20062;-84
2023/09/18 04:52:42;;;;;;;7.53;4.30;;;14.20;99.90;;;;;;4935965;29;20043;-83
2023/09/18 04:55:08;;;;;;;5.43;4.38;;;14.20;99.90;;;;;;4936443;29;20487;-84
2023/09/18 04:57:34;;;;;;;9.63;5.18;;;14.20;99.90;;;;;;4936111;29;20085;-84
2023/09/18 05:00:00;;;;;;;7.25;4.60;;;14.20;99.90;;;;;;4933972;29;20071;-84
2023/09/18 05:02:25;;;;;;;7.82;4.65;;;14.20;99.90;;;;;;4935731;29;20921;-84
2023/09/18 05:04:52;;;;;;;6.18;4.68;;;14.20;99.90;;;;;;4934843;29;20098;-84
2023/09/18 05:07:17;;;;;;;7.50;4.82;;;14.20;99.90;;;;;;4934878;29;20722;-84
2023/09/18 05:09:43;;;;;;;8.60;4.90;;;14.20;99.90;;;;;;4933014;29;20165;-85
2023/09/18 05:12:13;;;;;;;7.65;4.57;;;14.20;99.90;;;;;;4935434;29;20031;-84
2023/09/18 05:14:40;;;;;;;7.03;4.15;;;14.20;99.90;;;;;;4935990;29;21260;-84
2023/09/18 05:17:05;;;;;;;7.13;4.20;;;14.30;99.90;;;;;;4943312;29;20046;-83
2023/09/18 05:19:31;;;;;;;6.43;3.72;;;14.30;99.90;;;;;;4941978;29;20027;-84
2023/09/18 05:21:56;;;;;;;10.23;4.25;;;14.30;99.90;;;;;;4940868;29;20042;-84
2023/09/18 05:24:27;;;;;;;5.82;4.20;;;14.30;99.90;;;;;;4920443;29;20040;-83
2023/09/18 05:26:53;;;;;;;7.78;3.90;;;14.30;99.90;;;;;;4940301;29;20116;-83
2023/09/18 05:29:19;;;;;;;7.05;4.53;;;14.40;99.90;;;;;;4939137;29;20082;-84
2023/09/18 05:31:45;;;;;;;6.68;4.03;;;14.40;99.90;;;;;;4945213;29;20063;-83
2023/09/18 05:34:13;;;;;;;6.00;4.35;;;14.40;99.90;;;;;;4961704;28;20094;-82
2023/09/18 05:36:39;;;;;;;7.00;4.47;;;14.40;99.90;;;;;;4943178;28;20047;-82
2023/09/18 05:39:06;;;;;;;6.32;4.65;;;14.50;99.90;;;;;;4941688;29;20126;-84
2023/09/18 05:41:32;;;;;;;6.25;4.38;;;14.50;99.90;;;;;;4938083;29;20061;-84
2023/09/18 05:43:57;;;;;;;8.27;4.97;;;14.60;99.90;;;;;;4935136;29;20110;-84
2023/09/18 05:46:23;;;;;;;8.20;4.45;;;14.70;99.90;;;;;;4934542;29;20031;-84
2023/09/18 05:48:49;;;;;;;6.90;4.70;;;14.80;99.90;;;;;;4934818;29;20023;-84
2023/09/18 05:51:15;;;;;;;8.27;4.97;;;14.80;99.90;;;;;;4931347;29;21194;-84
2023/09/18 05:53:40;;;;;;;7.28;5.18;;;14.90;99.90;;;;;;4934822;29;20106;-84
2023/09/18 05:56:06;;;;;;;7.38;4.53;;;15.10;99.90;;;;;;4935642;29;20399;-84
2023/09/18 05:58:32;;;;;;;8.18;4.65;;;15.10;99.90;;;;;;4934263;29;20027;-85
2023/09/18 06:01:00;;;;;;;5.35;4.22;;;15.30;99.90;;;;;;4933866;29;20055;-84
2023/09/18 06:03:27;;;;;;;7.10;5.30;;;15.40;99.90;;;;;;4931564;29;20209;-84
2023/09/18 06:05:52;;;;;;;9.25;6.00;;;15.50;99.90;;;;;;4933423;29;20447;-84
2023/09/18 06:08:18;;;;;;;12.18;6.22;;;15.60;99.90;;;;;;4934456;29;20023;-84
2023/09/18 06:10:44;;;;;;;7.40;5.75;;;15.70;99.90;;;;;;4932559;29;20035;-83
2023/09/18 06:13:10;;;;;;;5.38;4.68;;;15.70;99.90;;;;;;4934079;29;20032;-84
2023/09/18 06:15:36;;;;;;;6.60;4.57;;;15.70;99.90;;;;;;4933584;29;20113;-84
2023/09/18 06:25:33;;;;;;;4.85;4.35;;;15.80;99.90;;;;;;5739769;23;20138;-82
2023/09/18 06:28:00;;;;;;;8.23;5.00;;;15.90;99.90;;;;;;4926354;28;20056;-78
2023/09/18 06:30:26;;;;;;;7.65;4.28;;;16.00;99.90;;;;;;4941918;29;20031;-77
2023/09/18 06:32:53;;;;;;;9.63;4.70;;;16.10;99.90;;;;;;4945545;29;20110;-76
2023/09/18 06:35:21;;;;;;;7.85;5.43;;;16.10;99.90;;;;;;4947741;28;20035;-77
2023/09/18 06:37:48;;;;;;;9.25;4.35;;;16.20;99.90;;;;;;4947363;29;20086;-78
2023/09/18 06:40:23;;;;;;;7.68;5.30;;;16.30;99.90;;;;;;4939080;29;20024;-78
2023/09/18 06:43:00;;;;;;;8.77;5.63;;;16.30;99.90;;;;;;4950670;29;20042;-78
2023/09/18 06:45:30;;;;;;;8.18;5.53;;;16.40;99.90;;;;;;4946454;29;20497;-78
2023/09/18 06:48:00;;;;;;;8.77;5.70;;;16.50;99.90;;;;;;4933271;29;20047;-78
2023/09/18 06:50:41;;;;;;;10.68;4.85;;;16.60;99.90;;;;;;4919438;29;20055;-79
2023/09/18 06:53:26;;;;;;;7.70;5.10;;;16.70;99.90;;;;;;4938717;29;20066;-80
2023/09/18 06:55:52;;;;;;;8.70;4.40;;;16.70;99.90;;;;;;4949849;29;20047;-81
2023/09/18 06:58:29;;;;;;;6.75;4.90;;;16.90;99.90;;;;;;4950709;29;20062;-82
2023/09/18 07:00:57;;;;;;;10.57;5.35;;;17.00;99.90;;;;;;4948963;29;20050;-80
2023/09/18 07:03:23;;;;;;;10.55;5.55;;;17.10;99.90;;;;;;4934854;29;20954;-79
2023/09/18 07:05:49;;;;;;;10.32;4.95;;;17.10;99.90;;;;;;4952062;29;20031;-79
2023/09/18 07:08:19;;;;;;;9.65;4.80;;;17.20;99.90;;;;;;4956110;29;20037;-80
2023/09/18 07:10:46;;;;;;;6.95;5.07;;;17.40;99.90;;;;;;4956815;28;20050;-79
2023/09/18 07:13:13;;;;;;;10.15;4.97;;;17.50;99.90;;;;;;4959040;29;20023;-80
2023/09/18 07:15:43;;;;;;;7.43;4.70;;;17.80;99.90;;;;;;4958279;29;20091;-78
2023/09/18 07:18:13;;;;;;;10.60;5.50;;;17.90;99.90;;;;;;4959499;29;20094;-78
2023/09/18 07:20:41;;;;;;;6.43;4.82;;;18.10;99.90;;;;;;4957580;29;20031;-79
2023/09/18 07:23:08;;;;;;;10.00;5.25;;;18.30;99.90;;;;;;4957749;29;20023;-79
2023/09/18 07:25:48;;;;;;;7.72;5.03;;;18.40;99.90;;;;;;4957016;29;20035;-80
2023/09/18 07:28:19;;;;;;;8.73;5.35;;;18.60;99.90;;;;;;4957151;29;20046;-80
2023/09/18 07:30:46;;;;;;;9.50;5.15;;;18.70;99.90;;;;;;4959038;29;20059;-79
2023/09/18 07:33:12;;;;;;;10.00;5.10;;;18.80;99.90;;;;;;4957204;29;20028;-80
2023/09/18 07:35:57;;;;;;;11.70;4.78;;;18.80;99.90;;;;;;4958302;29;20031;-81
2023/09/18 07:38:30;;;;;;;7.25;4.78;;;18.90;99.90;;;;;;4953829;29;20147;-79
2023/09/18 07:41:00;;;;;;;9.65;4.70;;;19.00;99.90;;;;;;4957006;29;20116;-81
2023/09/18 07:43:29;;;;;;;5.32;4.47;;;19.00;99.90;;;;;;4932176;29;20028;-81
2023/09/18 07:45:59;;;;;;;11.95;5.13;;;19.00;99.90;;;;;;4955624;29;20043;-80
2023/09/18 07:48:25;;;;;;;6.93;4.63;;;19.10;99.90;;;;;;4956151;29;20055;-79
2023/09/18 07:50:51;;;;;;;6.85;4.78;;;19.20;99.90;;;;;;4957341;29;20031;-81
2023/09/18 07:53:16;;;;;;;8.85;4.90;;;19.30;99.90;;;;;;4957556;29;20023;-80
2023/09/18 07:55:42;;;;;;;8.18;5.45;;;19.40;99.90;;;;;;4955478;28;20032;-79
2023/09/18 07:58:13;;;;;;;6.97;5.07;;;19.50;99.90;;;;;;4958216;29;20031;-80
2023/09/18 08:00:43;;;;;;;9.40;5.05;;;19.60;99.90;;;;;;4946329;29;20525;-79
2023/09/18 08:03:16;;;;;;;5.60;4.55;;;19.80;99.90;;;;;;4957871;29;20106;-81
2023/09/18 08:05:52;;;;;;;7.38;4.70;;;19.90;99.90;;;;;;4958841;29;20043;-81
2023/09/18 08:08:53;;;;;;;10.93;5.03;;;20.10;99.90;;;;;;4958589;29;20062;-81
2023/09/18 08:15:10;;;;;;;;;;;;;;;;;;;;;
2023/09/18 08:18:03;;;;;;;10.30;4.20;;;20.50;99.90;;;;;;4956475;29;20058;-78
2023/09/18 08:20:42;;;;;;;8.75;4.63;;;20.70;99.90;;;;;;4956119;29;20035;-81
2023/09/18 08:23:16;;;;;;;11.38;4.97;;;20.70;99.90;;;;;;4942441;29;20027;-81
2023/09/18 08:25:55;;;;;;;7.10;4.43;;;20.70;99.90;;;;;;4945019;29;20043;-79
2023/09/18 08:29:17;;;;;;;;;;;;;;;;;;;;;
2023/09/18 08:32:34;;;;;;;;;;;;;;;;;;;;;
2023/09/18 08:36:54;;;;;;;;;;;;;;;;;;;;;
2023/09/18 10:20:27;;;;;;;9.70;2.95;;;23.00;99.90;;;;;;4961015;28;20051;-83
2023/09/18 10:22:56;;;;;;;13.52;3.30;;;23.00;99.90;;;;;;4962509;28;20043;-83
2023/09/18 10:25:27;;;;;;;8.25;3.20;;;23.00;99.90;;;;;;4960501;28;20081;-84
2023/09/18 10:27:58;;;;;;;9.88;3.10;;;23.10;99.90;;;;;;4962813;28;20094;-83
2023/09/18 10:30:26;;;;;;;14.13;2.95;;;23.10;99.90;;;;;;4962369;28;21010;-83
2023/09/18 10:32:53;;;;;;;16.38;3.63;;;23.00;99.90;;;;;;4963639;28;20405;-83
2023/09/18 10:35:20;;;;;;;11.55;3.20;;;22.90;99.90;;;;;;4961859;28;20031;-83
2023/09/18 10:37:48;;;;;;;18.25;3.70;;;22.90;99.90;;;;;;4962265;28;20030;-83
2023/09/18 10:40:13;;;;;;;13.70;3.88;;;23.00;99.90;;;;;;4964140;28;20038;-83
2023/09/18 10:42:42;;;;;;;13.10;3.70;;;23.00;99.90;;;;;;4965016;28;20414;-83
2023/09/18 10:45:10;;;;;;;18.95;3.30;;;23.00;99.90;;;;;;4969290;28;20402;-83
2023/09/18 10:47:41;;;;;;;15.45;3.78;;;23.00;99.90;;;;;;4968603;28;20031;-82
2023/09/18 10:50:09;;;;;;;16.23;3.20;;;23.00;99.90;;;;;;4970815;28;20054;-83
2023/09/18 10:52:35;;;;;;;12.20;3.05;;;23.10;99.90;;;;;;4971370;28;20039;-82
2023/09/18 10:55:04;;;;;;;16.65;3.58;;;23.10;99.90;;;;;;4966989;28;20054;-81
2023/09/18 10:57:35;;;;;;;10.13;3.17;;;23.10;99.90;;;;;;4967527;28;20031;-82
2023/09/18 11:00:13;;;;;;;10.57;3.28;;;23.10;99.90;;;;;;4967990;28;20552;-84
2023/09/18 11:02:43;;;;;;;20.55;4.00;;;23.10;99.90;;;;;;4968624;28;20045;-84
2023/09/18 11:05:08;;;;;;;12.85;3.25;;;23.10;99.90;;;;;;4967907;28;20040;-84
2023/09/18 11:07:34;;;;;;;10.35;3.42;;;23.10;99.90;;;;;;4966619;28;20027;-85
2023/09/18 11:10:26;;;;;;;21.48;3.38;;;23.00;99.90;;;;;;4966437;28;20568;-83
2023/09/18 11:12:52;;;;;;;14.77;3.45;;;23.10;99.90;;;;;;4952389;28;20029;-83
2023/09/18 11:15:32;;;;;;;11.68;2.60;;;23.10;99.90;;;;;;4965636;28;20031;-83
2023/09/18 11:18:05;;;;;;;11.00;3.30;;;23.10;99.90;;;;;;4967632;28;20037;-82
2023/09/18 11:20:31;;;;;;;14.95;2.85;;;23.10;99.90;;;;;;4968104;28;20023;-83
2023/09/18 11:22:57;;;;;;;9.60;2.35;;;23.00;99.90;;;;;;4968102;28;20033;-83
2023/09/18 11:25:51;;;;;;;8.77;2.13;;;23.00;99.90;;;;;;4965299;28;21329;-82
2023/09/18 11:28:24;;;;;;;10.65;2.60;;;22.80;99.90;;;;;;4966821;28;20043;-83
2023/09/18 11:30:58;;;;;;;12.00;2.28;;;22.60;99.90;;;;;;4968409;28;20027;-82
2023/09/18 11:33:35;;;;;;;8.73;2.30;;;22.50;99.90;;;;;;4966308;28;20034;-82
2023/09/18 11:36:12;;;;;;;7.72;2.38;;;22.50;99.90;;;;;;4965670;28;20061;-82
2023/09/18 11:38:57;;;;;;;7.40;1.90;;;22.30;99.90;;;;;;4966721;28;20117;-82
2023/09/18 11:41:34;;;;;;;8.50;2.13;;;22.10;99.90;;;;;;4966870;28;20034;-83
2023/09/18 11:44:16;;;;;;;9.43;2.42;;;22.00;99.90;;;;;;4964272;28;20062;-78
2023/09/18 11:46:47;;;;;;;6.90;2.10;;;21.90;99.90;;;;;;4964737;28;20524;-80
2023/09/18 11:49:14;;;;;;;10.95;2.20;;;21.50;99.90;;;;;;4966910;28;20034;-82
2023/09/18 11:51:40;;;;;;;8.10;1.98;;;21.30;99.90;;;;;;4966695;28;20130;-82
2023/09/18 11:54:07;;;;;;;8.43;2.10;;;21.20;99.90;;;;;;4965332;28;20086;-82
2023/09/18 11:56:35;;;;;;;5.63;1.90;;;21.20;99.90;;;;;;4963402;28;20094;-82
2023/09/18 11:59:04;;;;;;;10.45;2.08;;;21.10;99.90;;;;;;4965443;28;20673;-82
2023/09/18 12:01:31;;;;;;;5.53;1.60;;;21.00;99.90;;;;;;4965812;28;20038;-81
2023/09/18 12:04:12;;;;;;;5.68;2.03;;;21.00;99.90;;;;;;4964969;28;20039;-82
2023/09/18 12:06:41;;;;;;;5.90;1.83;;;21.00;99.90;;;;;;4963777;28;20150;-82
2023/09/18 12:09:08;;;;;;;6.47;1.90;;;20.90;99.90;;;;;;4963357;28;20034;-81
2023/09/18 12:11:35;;;;;;;3.85;1.50;;;20.80;99.90;;;;;;4964019;28;20077;-82
2023/09/18 12:14:05;;;;;;;3.40;1.60;;;20.60;99.90;;;;;;4964270;28;20404;-82
2023/09/18 12:16:31;;;;;;;6.22;2.03;;;20.40;99.90;;;;;;4963805;28;20026;-82
2023/09/18 12:18:56;;;;;;;6.32;1.98;;;20.30;99.90;;;;;;4964677;28;20397;-82
2023/09/18 12:21:23;;;;;;;8.13;1.70;;;20.10;99.90;;;;;;4964069;28;20098;-83
2023/09/18 12:23:50;;;;;;;6.65;1.80;;;19.90;99.90;;;;;;4964164;28;20559;-82
2023/09/18 12:26:17;;;;;;;4.57;1.65;;;19.80;99.90;;;;;;4962458;28;20031;-82
2023/09/18 12:28:44;;;;;;;7.80;1.77;;;19.60;99.90;;;;;;4963469;28;20562;-82
2023/09/18 12:31:13;;;;;;;6.32;1.77;;;19.40;99.90;;;;;;4963662;28;20023;-82
2023/09/18 12:33:40;;;;;;;7.05;2.38;;;19.30;99.90;;;;;;4964220;28;20213;-82
2023/09/18 12:36:08;;;;;;;7.50;2.17;;;19.30;99.90;;;;;;4965187;28;20040;-82
2023/09/18 12:38:34;;;;;;;9.50;2.80;;;19.10;99.90;;;;;;4963457;28;20561;-81
2023/09/18 12:41:05;;;;;;;6.90;2.05;;;19.00;99.90;;;;;;4962937;28;20027;-81
2023/09/18 12:43:41;;;;;;;5.55;1.95;;;18.90;99.90;;;;;;4961825;28;20546;-81
2023/09/18 12:46:09;;;;;;;4.78;2.10;;;18.80;99.90;;;;;;4960171;28;20525;-81
2023/09/18 12:48:42;;;;;;;6.15;1.90;;;18.70;99.90;;;;;;4961212;28;20022;-81
2023/09/18 12:51:07;;;;;;;7.18;2.00;;;18.60;99.90;;;;;;4963643;28;20023;-82
2023/09/18 12:53:34;;;;;;;4.22;1.45;;;18.50;99.90;;;;;;4957456;28;20030;-81
2023/09/18 12:56:13;;;;;;;3.42;1.77;;;18.30;99.90;;;;;;4966649;28;20047;-81
2023/09/18 12:58:42;;;;;;;4.15;1.40;;;18.20;99.90;;;;;;4969986;28;20062;-82
2023/09/18 13:01:09;;;;;;;4.22;1.50;;;18.10;99.90;;;;;;4969329;28;20035;-82
2023/09/18 13:03:43;;;;;;;5.68;1.70;;;18.00;99.90;;;;;;4964982;28;20027;-81
2023/09/18 13:06:11;;;;;;;3.47;1.73;;;18.00;99.90;;;;;;4964976;28;20043;-81
2023/09/18 13:08:36;;;;;;;2.70;1.50;;;17.90;99.90;;;;;;4965747;28;20478;-81
2023/09/18 13:11:06;;;;;;;6.13;1.60;;;17.80;99.90;;;;;;4968003;28;20027;-81
2023/09/18 13:13:32;;;;;;;9.20;2.35;;;17.80;99.90;;;;;;4964646;28;20038;-81
2023/09/18 13:15:59;;;;;;;4.50;1.60;;;17.80;99.90;;;;;;4965022;28;20034;-82
2023/09/18 13:18:25;;;;;;;2.53;1.50;;;17.80;99.90;;;;;;4965301;28;20029;-81
2023/09/18 13:20:52;;;;;;;4.25;1.55;;;17.90;99.90;;;;;;4966291;28;20031;-81
2023/09/18 13:23:17;;;;;;;5.35;1.73;;;17.90;99.90;;;;;;4965655;28;20062;-81
2023/09/18 13:25:44;;;;;;;5.53;1.77;;;17.90;99.90;;;;;;4962173;28;20489;-82
2023/09/18 13:28:11;;;;;;;4.43;1.90;;;17.90;99.90;;;;;;4965528;28;20051;-82
2023/09/18 13:30:41;;;;;;;4.05;1.80;;;17.90;99.90;;;;;;4964018;28;20019;-82
2023/09/18 13:33:09;;;;;;;4.40;1.75;;;17.90;99.90;;;;;;4963454;28;20109;-81
2023/09/18 13:35:37;;;;;;;7.03;2.13;;;18.00;99.90;;;;;;4963343;28;20029;-81
2023/09/18 13:38:07;;;;;;;4.72;1.60;;;18.00;99.90;;;;;;4962680;28;20102;-82
2023/09/18 13:40:36;;;;;;;4.75;1.92;;;18.00;99.90;;;;;;4963123;28;20433;-81
2023/09/18 13:43:03;;;;;;;4.28;1.80;;;18.10;99.90;;;;;;4963287;28;20039;-81
2023/09/18 13:45:32;;;;;;;5.55;1.88;;;18.10;99.90;;;;;;4963067;28;20042;-82
2023/09/18 13:47:59;;;;;;;9.25;2.13;;;18.10;99.90;;;;;;4963218;28;20382;-81
2023/09/18 13:50:24;;;;;;;6.40;2.42;;;18.10;99.90;;;;;;4962987;28;20023;-82
2023/09/18 13:52:50;;;;;;;3.65;1.98;;;18.20;99.90;;;;;;4961991;28;20743;-81
2023/09/18 13:55:16;;;;;;;6.55;2.20;;;18.20;99.90;;;;;;4962669;28;20023;-81
2023/09/18 13:57:42;;;;;;;5.60;1.80;;;18.30;99.90;;;;;;4962326;28;20035;-82
2023/09/18 14:00:11;;;;;;;4.72;1.88;;;18.40;99.90;;;;;;4963348;28;20389;-82
2023/09/18 14:02:38;;;;;;;4.35;1.60;;;18.50;99.90;;;;;;4962521;28;20039;-82
2023/09/18 14:05:04;;;;;;;3.40;1.50;;;18.60;99.90;;;;;;4962139;28;20046;-81
2023/09/18 14:07:30;;;;;;;3.55;1.60;;;18.70;99.90;;;;;;4964247;28;20030;-81
2023/09/18 14:09:55;;;;;;;2.97;1.50;;;18.80;99.90;;;;;;4962574;28;20019;-83
2023/09/18 14:12:21;;;;;;;4.63;1.70;;;18.90;99.90;;;;;;4964133;28;20097;-82
2023/09/18 14:14:47;;;;;;;4.97;1.45;;;19.00;99.90;;;;;;4944790;28;20031;-83
2023/09/18 14:17:13;;;;;;;6.63;2.38;;;19.10;99.90;;;;;;4963990;28;20030;-81
2023/09/18 14:19:38;;;;;;;4.22;1.70;;;19.20;99.90;;;;;;4965563;28;20046;-82
2023/09/18 14:22:08;;;;;;;6.47;1.58;;;19.20;99.90;;;;;;4967855;28;20078;-81
2023/09/18 14:24:34;;;;;;;6.20;1.75;;;19.20;99.90;;;;;;4966681;28;20035;-82
2023/09/18 14:27:01;;;;;;;3.47;1.25;;;19.30;99.90;;;;;;4968805;28;20037;-83
2023/09/18 14:29:26;;;;;;;3.10;1.45;;;19.30;99.90;;;;;;4969159;28;20037;-81
2023/09/18 14:31:52;;;;;;;5.60;1.77;;;19.30;99.90;;;;;;4969743;28;20023;-81
2023/09/18 14:34:18;;;;;;;3.60;1.50;;;19.30;99.90;;;;;;4968347;28;20039;-82
2023/09/18 14:36:43;;;;;;;4.90;1.50;;;19.30;99.90;;;;;;4967633;28;20035;-82
2023/09/18 14:39:10;;;;;;;4.68;1.50;;;19.30;99.90;;;;;;4968070;28;20511;-81
2023/09/18 14:41:37;;;;;;;4.85;1.67;;;19.20;99.90;;;;;;4967309;28;20038;-81
2023/09/18 14:44:04;;;;;;;4.88;1.60;;;19.20;99.90;;;;;;4967559;28;20058;-81
2023/09/18 14:46:33;;;;;;;5.72;1.50;;;19.20;99.90;;;;;;4969294;28;20027;-81
2023/09/18 14:49:01;;;;;;;7.15;1.48;;;19.20;99.90;;;;;;4969066;28;20033;-82
2023/09/18 14:51:30;;;;;;;7.00;1.67;;;19.30;99.90;;;;;;4968457;28;20057;-81